Terminal Aerodrome Forecast
Issued by NWS Charleston, WV

Current Version | Previous Version | Graphics & Text | Print | Product List | Glossary On
Versions: 1 2 3 4 5 6 7 8 9 10 11 12 13 14 15 16 17 18 19 20 21 22 23 24 25 26 27 28
000
FTUS41 KRLX 291700
TAFPKB
TAF
KPKB 291720Z 2918/3018 19009G15KT P6SM BKN050
     FM292200 22010G17KT P6SM OVC030
     FM300000 25011G19KT 6SM -RA BR OVC015
     FM300200 27010G17KT 3SM -RASN OVC010
     FM300400 27010G17KT 2SM -SHSN OVC015
     FM301100 29010G17KT P6SM OVC020
     FM301700 31011G19KT P6SM BKN020=

USA.gov is the U.S. government's official web portal to all federal, state and local government web resources and services.